Time;durP1;ratioP1;P1;durP2;ratioP2;P2;SDS_P1;SDS_P2;PMS_P1;PMS_P2;Temp;Humidity;BMP_temperature;BMP_pressure;BME280_temperature;BME280_humidity;BME280_pressure;Samples;Min_cycle;Max_cycle;Signal;HPM_P1;HPM_P2
2023/06/30 00:01:30;;;;;;;;;;;;;;;16.59;52.17;96410.81;6245944;28;19920;-69
2023/06/30 00:04:33;;;;;;;;;;;;;;;16.60;51.45;96406.31;6246201;28;19958;-69
2023/06/30 00:07:39;;;;;;;;;;;;;;;16.65;51.95;96408.53;6246120;28;19924;-69
2023/06/30 00:10:41;;;;;;;;;;;;;;;16.63;51.82;96415.81;6246167;28;19925;-69
2023/06/30 00:13:47;;;;;;;;;;;;;;;16.63;52.69;96410.50;6246110;28;19920;-69
2023/06/30 00:16:50;;;;;;;;;;;;;;;16.60;52.23;96411.63;6245928;28;19921;-69
2023/06/30 00:19:57;;;;;;;;;;;;;;;16.63;52.61;96410.50;6246034;28;19921;-69
2023/06/30 00:23:01;;;;;;;;;;;;;;;16.70;51.70;96414.22;6245407;28;19921;-68
2023/06/30 00:26:05;;;;;;;;;;;;;;;16.75;51.75;96409.31;6245452;28;20408;-69
2023/06/30 00:29:07;;;;;;;;;;;;;;;16.81;51.83;96419.38;6246059;28;19928;-69
2023/06/30 00:32:11;;;;;;;;;;;;;;;16.83;51.94;96414.75;6245746;28;19921;-68
2023/06/30 00:35:12;;;;;;;;;;;;;;;16.81;52.43;96419.38;6245421;28;20409;-69
2023/06/30 00:38:14;;;;;;;;;;;;;;;16.84;52.35;96419.06;6244984;28;19932;-69
2023/06/30 00:41:18;;;;;;;;;;;;;;;16.85;51.92;96412.78;6245035;28;19943;-70
2023/06/30 00:44:19;;;;;;;;;;;;;;;16.89;51.67;96419.47;6245553;28;19920;-69
2023/06/30 00:47:22;;;;;;;;;;;;;;;16.87;52.11;96416.13;6245446;28;19920;-69
2023/06/30 00:50:26;;;;;;;;;;;;;;;16.91;52.33;96420.16;6245305;28;19921;-69
2023/06/30 00:53:31;;;;;;;;;;;;;;;17.01;51.74;96426.25;6245121;28;19921;-69
2023/06/30 00:56:32;;;;;;;;;;;;;;;17.11;51.58;96428.00;6245255;28;19921;-69
2023/06/30 00:59:35;;;;;;;;;;;;;;;17.22;51.71;96430.44;6245179;28;19921;-68
2023/06/30 01:02:43;;;;;;;;;;;;;;;17.30;51.26;96427.84;6244496;28;19921;-69
2023/06/30 01:05:47;;;;;;;;;;;;;;;17.35;51.71;96428.22;6244746;28;19928;-69
2023/06/30 01:08:55;;;;;;;;;;;;;;;17.39;51.40;96429.59;6245280;28;19924;-69
2023/06/30 01:11:58;;;;;;;;;;;;;;;17.38;51.52;96422.63;6245140;28;19955;-69
2023/06/30 01:15:03;;;;;;;;;;;;;;;17.42;51.49;96423.97;6244456;28;19960;-69
2023/06/30 01:18:11;;;;;;;;;;;;;;;17.46;51.18;96425.31;6245263;28;19924;-68
2023/06/30 01:21:13;;;;;;;;;;;;;;;17.49;51.79;96427.69;6245006;28;19960;-68
2023/06/30 01:24:17;;;;;;;;;;;;;;;17.54;52.30;96421.06;6244901;28;19921;-69
2023/06/30 01:27:20;;;;;;;;;;;;;;;17.56;51.89;96425.25;6245168;28;19991;-70
2023/06/30 01:30:22;;;;;;;;;;;;;;;17.59;51.92;96424.13;6227514;28;20465;-69
2023/06/30 01:33:23;;;;;;;;;;;;;;;17.61;51.69;96428.28;6245031;28;19921;-69
2023/06/30 01:36:24;;;;;;;;;;;;;;;17.63;51.21;96428.13;6244898;28;19951;-70
2023/06/30 01:39:27;;;;;;;;;;;;;;;17.60;51.31;96431.09;6244861;28;19921;-69
2023/06/30 01:42:31;;;;;;;;;;;;;;;17.55;51.33;96433.38;6227032;28;20014;-69
2023/06/30 01:45:35;;;;;;;;;;;;;;;17.46;52.35;96441.28;6244944;28;19921;-70
2023/06/30 01:48:36;;;;;;;;;;;;;;;17.45;53.57;96436.97;6244561;28;20306;-69
2023/06/30 01:51:39;;;;;;;;;;;;;;;17.46;52.49;96437.78;6244519;28;19928;-69
2023/06/30 01:54:43;;;;;;;;;;;;;;;17.46;52.19;96435.97;6249205;28;19924;-70
2023/06/30 01:57:47;;;;;;;;;;;;;;;17.49;52.30;96438.34;6249207;28;19928;-69
2023/06/30 02:00:51;;;;;;;;;;;;;;;17.55;52.66;96444.00;6248427;28;20023;-69
2023/06/30 02:03:56;;;;;;;;;;;;;;;17.60;53.16;96441.72;6249100;28;19920;-69
2023/06/30 02:06:56;;;;;;;;;;;;;;;17.69;52.54;96435.47;6247755;28;19921;-70
2023/06/30 02:10:00;;;;;;;;;;;;;;;17.77;51.55;96438.22;6247758;28;19927;-69
2023/06/30 02:13:01;;;;;;;;;;;;;;;17.86;51.32;96437.34;6248765;28;19921;-69
2023/06/30 02:16:04;;;;;;;;;;;;;;;18.03;50.46;96442.75;6248908;28;19921;-69
2023/06/30 02:19:08;;;;;;;;;;;;;;;18.14;50.75;96442.50;6248105;28;20047;-69
2023/06/30 02:22:08;;;;;;;;;;;;;;;18.21;51.30;96440.06;6247768;28;19927;-69
2023/06/30 02:25:10;;;;;;;;;;;;;;;18.28;51.21;96451.72;6247877;28;19924;-69
2023/06/30 02:28:11;;;;;;;;;;;;;;;18.30;51.20;96450.56;6247791;28;19921;-70
2023/06/30 02:31:15;;;;;;;;;;;;;;;18.32;51.43;96448.59;6248370;28;20409;-69
2023/06/30 02:34:16;;;;;;;;;;;;;;;18.38;50.90;96447.97;6248758;28;20307;-69
2023/06/30 02:37:17;;;;;;;;;;;;;;;18.50;50.84;96440.53;6248026;28;19921;-69
2023/06/30 02:40:17;;;;;;;;;;;;;;;18.58;50.91;96439.75;6248106;28;19927;-69
2023/06/30 02:43:18;;;;;;;;;;;;;;;18.67;50.59;96437.94;6247279;28;19917;-69
2023/06/30 02:46:22;;;;;;;;;;;;;;;18.78;50.59;96443.84;6248093;28;19921;-68
2023/06/30 02:49:27;;;;;;;;;;;;;;;18.84;50.00;96443.19;6248116;28;19921;-69
2023/06/30 02:52:32;;;;;;;;;;;;;;;18.99;50.52;96447.91;6248204;28;19932;-71
2023/06/30 02:55:34;;;;;;;;;;;;;;;19.04;49.89;96443.75;6247045;28;19921;-69
2023/06/30 02:58:39;;;;;;;;;;;;;;;19.18;49.66;96450.28;6246844;28;20405;-70
2023/06/30 03:01:41;;;;;;;;;;;;;;;19.24;50.09;96454.97;6246637;28;19968;-68
2023/06/30 03:04:44;;;;;;;;;;;;;;;19.31;49.33;96454.34;6246813;28;20373;-70
2023/06/30 03:07:48;;;;;;;;;;;;;;;19.42;49.29;96445.97;6247429;28;20301;-70
2023/06/30 03:10:52;;;;;;;;;;;;;;;19.52;49.14;96441.34;6247459;28;19921;-70
2023/06/30 03:13:55;;;;;;;;;;;;;;;19.64;48.91;96440.00;6246621;28;20361;-68
2023/06/30 03:16:59;;;;;;;;;;;;;;;19.73;48.76;96438.22;6247067;28;19921;-69
2023/06/30 03:20:08;;;;;;;;;;;;;;;19.85;48.65;96441.38;6247193;28;19920;-69
2023/06/30 03:23:13;;;;;;;;;;;;;;;19.94;48.24;96427.00;6229788;28;20430;-70
2023/06/30 03:26:14;;;;;;;;;;;;;;;20.06;48.10;96433.66;6246064;28;19928;-69
2023/06/30 03:29:17;;;;;;;;;;;;;;;20.19;47.83;96428.66;6246274;28;20023;-69
2023/06/30 03:32:18;;;;;;;;;;;;;;;20.27;47.84;96434.97;6246394;28;19928;-69
2023/06/30 03:35:22;;;;;;;;;;;;;;;20.34;47.97;96431.44;6246915;28;19920;-71
2023/06/30 03:38:25;;;;;;;;;;;;;;;20.49;47.47;96428.88;6246339;28;19921;-70
2023/06/30 03:41:31;;;;;;;;;;;;;;;20.60;47.34;96435.72;6246560;28;19921;-70
2023/06/30 03:44:32;;;;;;;;;;;;;;;20.71;47.17;96434.53;6246309;28;20398;-70
2023/06/30 03:47:37;;;;;;;;;;;;;;;20.84;46.98;96432.97;6246563;28;19921;-69
2023/06/30 03:50:41;;;;;;;;;;;;;;;20.99;46.86;96430.38;6229374;28;19925;-71
2023/06/30 03:53:44;;;;;;;;;;;;;;;21.17;46.29;96432.78;6246279;28;20318;-69
2023/06/30 03:56:49;;;;;;;;;;;;;;;21.30;45.99;96432.22;6228985;28;20307;-69
2023/06/30 03:59:51;;;;;;;;;;;;;;;21.43;46.06;96437.84;6245598;28;19927;-69
2023/06/30 04:02:53;;;;;;;;;;;;;;;21.56;45.50;96431.06;6245966;28;20015;-69
2023/06/30 04:05:54;;;;;;;;;;;;;;;21.72;45.28;96430.94;6245463;28;20391;-69
2023/06/30 04:08:58;;;;;;;;;;;;;;;21.82;44.93;96430.69;6245672;28;19927;-69
2023/06/30 04:12:01;;;;;;;;;;;;;;;21.96;44.45;96432.56;6245830;28;19928;-71
2023/06/30 04:15:04;;;;;;;;;;;;;;;22.04;44.12;96428.97;6244803;28;19944;-69
2023/06/30 04:18:13;;;;;;;;;;;;;;;22.17;43.71;96434.56;6245459;28;20131;-69
2023/06/30 04:21:14;;;;;;;;;;;;;;;22.25;43.30;96423.78;6228152;28;20284;-69
2023/06/30 04:24:19;;;;;;;;;;;;;;;22.41;43.13;96426.28;6245752;28;20585;-69
2023/06/30 04:27:20;;;;;;;;;;;;;;;22.61;42.88;96431.09;6245373;28;19921;-69
2023/06/30 04:30:24;;;;;;;;;;;;;;;22.83;42.42;96430.13;6245603;28;20460;-69
2023/06/30 04:33:25;;;;;;;;;;;;;;;23.01;42.23;96431.63;6244683;28;19921;-69
2023/06/30 04:36:29;;;;;;;;;;;;;;;23.17;41.82;96430.56;6245098;28;19921;-70
2023/06/30 04:39:32;;;;;;;;;;;;;;;23.35;41.44;96438.19;6244579;28;20316;-70
2023/06/30 04:42:33;;;;;;;;;;;;;;;23.60;41.13;96436.81;6245276;28;19951;-70
2023/06/30 04:45:37;;;;;;;;;;;;;;;23.87;40.68;96437.94;6244841;28;19921;-70
2023/06/30 04:48:40;;;;;;;;;;;;;;;24.55;39.66;96437.41;6244152;28;19925;-69
2023/06/30 04:51:41;;;;;;;;;;;;;;;27.03;36.00;96439.19;6244703;28;19936;-69
2023/06/30 04:54:43;;;;;;;;;;;;;;;30.26;32.00;96444.59;6244713;28;19921;-69
2023/06/30 04:57:53;;;;;;;;;;;;;;;33.35;29.36;96441.81;6245262;28;19921;-70
2023/06/30 05:00:57;;;;;;;;;;;;;;;36.20;26.39;96461.25;6245389;28;19921;-70
2023/06/30 05:03:59;;;;;;;;;;;;;;;38.38;24.86;96459.94;6227573;28;19921;-70
2023/06/30 05:07:00;;;;;;;;;;;;;;;40.42;24.43;96467.72;6227548;28;19925;-70
2023/06/30 05:10:03;;;;;;;;;;;;;;;42.72;22.73;96460.22;6244206;28;19921;-70
2023/06/30 05:13:07;;;;;;;;;;;;;;;45.01;19.28;96470.22;6245177;28;19979;-70
2023/06/30 05:16:12;;;;;;;;;;;;;;;46.68;20.84;96469.69;6227805;28;20385;-70
2023/06/30 05:19:18;;;;;;;;;;;;;;;47.45;18.95;96463.59;6244836;28;20314;-69
2023/06/30 05:22:19;;;;;;;;;;;;;;;49.20;16.84;96467.88;6245085;28;19921;-70
2023/06/30 05:25:22;;;;;;;;;;;;;;;50.89;16.21;96466.84;6244339;28;19920;-70
2023/06/30 05:28:25;;;;;;;;;;;;;;;51.29;15.33;96468.38;6247988;28;19921;-70
2023/06/30 05:31:29;;;;;;;;;;;;;;;52.17;15.47;96467.34;6249735;28;19967;-72
2023/06/30 05:34:33;;;;;;;;;;;;;;;53.66;14.44;96467.31;6250046;28;19921;-71
2023/06/30 05:37:34;;;;;;;;;;;;;;;54.55;13.96;96472.63;6249332;28;19921;-71
2023/06/30 05:40:42;;;;;;;;;;;;;;;55.60;9.67;96466.75;6249389;28;19929;-71
2023/06/30 05:43:43;;;;;;;;;;;;;;;55.58;8.39;96460.69;6249820;28;20406;-71
2023/06/30 05:46:48;;;;;;;;;;;;;;;54.40;11.89;96454.06;6249289;28;19925;-71
2023/06/30 05:49:51;;;;;;;;;;;;;;;54.34;11.63;96455.66;6250017;28;20330;-70
2023/06/30 05:52:56;;;;;;;;;;;;;;;54.62;11.98;96458.56;6243207;28;19925;-70
2023/06/30 05:55:57;;;;;;;;;;;;;;;55.14;9.79;96453.44;6272146;28;19927;-70
2023/06/30 05:59:02;;;;;;;;;;;;;;;56.08;8.07;96453.38;6278516;28;19947;-69
2023/06/30 06:02:09;;;;;;;;;;;;;;;55.51;8.69;96449.41;6280977;28;19933;-69
2023/06/30 06:05:12;;;;;;;;;;;;;;;54.36;9.50;96441.97;6264152;28;19981;-70
2023/06/30 06:08:18;;;;;;;;;;;;;;;55.43;9.41;96441.38;6280343;28;19943;-70
2023/06/30 06:11:24;;;;;;;;;;;;;;;56.84;9.47;96438.50;6279970;28;19921;-69
2023/06/30 06:14:28;;;;;;;;;;;;;;;58.00;8.82;96441.94;6279819;28;19901;-69
2023/06/30 06:17:35;;;;;;;;;;;;;;;57.45;7.52;96437.22;6282240;28;19989;-69
2023/06/30 06:20:37;;;;;;;;;;;;;;;56.92;6.59;96431.59;6280016;28;19960;-70
2023/06/30 06:23:44;;;;;;;;;;;;;;;57.22;7.45;96430.16;6281653;28;19905;-69
2023/06/30 06:26:50;;;;;;;;;;;;;;;57.77;7.99;96437.75;6282056;28;19925;-70
2023/06/30 06:29:55;;;;;;;;;;;;;;;58.35;6.96;96437.06;6281954;28;19928;-69
2023/06/30 06:33:01;;;;;;;;;;;;;;;57.19;6.52;96431.00;6281534;28;19905;-69
2023/06/30 06:36:32;;;;;;;;;;;;;;;56.61;6.15;96422.09;6261589;28;19905;-69
2023/06/30 06:39:36;;;;;;;;;;;;;;;56.89;5.31;96425.97;6276846;28;19925;-69
2023/06/30 06:42:43;;;;;;;;;;;;;;;55.08;6.25;96426.84;6277873;28;19980;-68
2023/06/30 06:45:46;;;;;;;;;;;;;;;55.01;7.30;96415.59;6279462;28;19921;-69
2023/06/30 06:48:52;;;;;;;;;;;;;;;56.56;7.00;96410.41;6276580;28;19925;-69
2023/06/30 06:51:57;;;;;;;;;;;;;;;57.85;6.31;96412.19;6279490;28;19901;-69
2023/06/30 06:55:04;;;;;;;;;;;;;;;56.89;6.14;96415.44;6281590;28;19917;-69
2023/06/30 06:58:08;;;;;;;;;;;;;;;55.84;7.20;96404.25;6279093;28;19956;-69
2023/06/30 07:01:14;;;;;;;;;;;;;;;56.36;6.54;96404.44;6277968;28;19921;-70
2023/06/30 07:04:21;;;;;;;;;;;;;;;54.84;7.67;96407.88;6278756;28;19905;-69
2023/06/30 07:07:29;;;;;;;;;;;;;;;54.39;7.14;96396.94;6279679;28;19921;-69
2023/06/30 07:10:32;;;;;;;;;;;;;;;50.56;9.51;96373.00;6255824;28;19920;-71
2023/06/30 07:13:40;;;;;;;;;;;;;;;50.37;9.37;96373.88;6247569;28;19974;-69
2023/06/30 07:16:48;;;;;;;;;;;;;;;51.80;8.64;96369.81;6247202;28;20018;-69
2023/06/30 07:19:57;;;;;;;;;;;;;;;52.36;8.67;96366.13;6247130;28;19927;-70
2023/06/30 07:23:04;;;;;;;;;;;;;;;53.08;8.41;96375.25;6247101;28;19920;-70
2023/06/30 07:26:09;;;;;;;;;;;;;;;54.15;7.72;96375.13;6228574;28;20063;-70
2023/06/30 07:29:18;;;;;;;;;;;;;;;54.56;7.18;96372.00;6247189;28;20051;-70
2023/06/30 07:32:22;;;;;;;;;;;;;;;55.88;6.49;96386.06;6255813;28;19921;-69
2023/06/30 07:35:24;;;;;;;;;;;;;;;55.21;6.87;96372.88;6263428;28;19925;-69
2023/06/30 07:38:28;;;;;;;;;;;;;;;56.16;5.98;96370.22;6270404;28;19907;-70
2023/06/30 07:41:34;;;;;;;;;;;;;;;55.59;6.59;96360.75;6272847;28;19927;-69
2023/06/30 07:44:41;;;;;;;;;;;;;;;56.53;5.71;96371.66;6275097;28;19952;-69
2023/06/30 07:47:47;;;;;;;;;;;;;;;56.42;5.37;96366.88;6242089;28;19944;-69
2023/06/30 07:50:50;;;;;;;;;;;;;;;54.63;6.25;96349.50;6252371;28;19920;-70
2023/06/30 07:53:54;;;;;;;;;;;;;;;53.33;6.20;96350.97;6245454;28;19966;-70
2023/06/30 07:56:57;;;;;;;;;;;;;;;53.27;6.22;96348.88;6246370;28;20378;-70
2023/06/30 07:59:59;;;;;;;;;;;;;;;51.73;6.92;96345.31;6245798;28;19968;-69
2023/06/30 08:03:03;;;;;;;;;;;;;;;50.58;7.30;96334.25;6245657;28;19921;-69
2023/06/30 08:06:04;;;;;;;;;;;;;;;51.24;7.22;96342.56;6245141;28;19921;-70
2023/06/30 08:09:07;;;;;;;;;;;;;;;51.53;6.87;96336.22;6245916;28;19924;-70
2023/06/30 08:12:09;;;;;;;;;;;;;;;51.86;6.86;96320.59;6245213;28;19961;-70
2023/06/30 08:15:13;;;;;;;;;;;;;;;52.92;6.37;96333.38;6245943;28;19925;-69
2023/06/30 08:18:23;;;;;;;;;;;;;;;53.73;5.63;96337.94;6245900;28;19964;-70
2023/06/30 08:21:25;;;;;;;;;;;;;;;53.23;5.94;96336.78;6227509;28;19932;-70
2023/06/30 08:24:29;;;;;;;;;;;;;;;52.19;6.29;96330.22;6228833;28;19928;-70
2023/06/30 08:27:35;;;;;;;;;;;;;;;51.02;6.90;96319.84;6228370;28;19968;-71
2023/06/30 08:30:37;;;;;;;;;;;;;;;51.06;6.99;96315.06;6245174;28;19927;-70
2023/06/30 08:33:41;;;;;;;;;;;;;;;51.14;6.97;96311.19;6228288;28;19928;-70
2023/06/30 08:36:46;;;;;;;;;;;;;;;51.20;6.68;96331.28;6227564;28;20267;-70
2023/06/30 08:39:49;;;;;;;;;;;;;;;50.55;6.94;96321.00;6245396;28;19928;-69
2023/06/30 08:42:53;;;;;;;;;;;;;;;49.76;7.50;96322.25;6245428;28;19935;-70
2023/06/30 08:45:59;;;;;;;;;;;;;;;48.87;7.64;96300.69;6245421;28;20012;-71
2023/06/30 08:49:05;;;;;;;;;;;;;;;50.44;7.13;96306.00;6245240;28;20090;-70
2023/06/30 08:52:08;;;;;;;;;;;;;;;50.79;6.99;96310.59;6244475;28;19921;-71
2023/06/30 08:55:13;;;;;;;;;;;;;;;50.85;6.86;96314.69;6226950;28;19920;-70
2023/06/30 08:58:19;;;;;;;;;;;;;;;49.92;6.82;96307.41;6245054;28;19921;-70
2023/06/30 09:01:21;;;;;;;;;;;;;;;49.22;7.39;96303.47;6243529;28;19964;-70
2023/06/30 09:04:26;;;;;;;;;;;;;;;49.42;7.25;96302.34;6243386;28;19984;-70
2023/06/30 09:07:33;;;;;;;;;;;;;;;48.58;7.46;96313.06;6243631;28;20457;-70
2023/06/30 09:10:41;;;;;;;;;;;;;;;47.85;7.88;96287.19;6244850;28;19921;-70
2023/06/30 09:13:45;;;;;;;;;;;;;;;48.67;7.36;96295.00;6244949;28;19917;-70
2023/06/30 09:16:51;;;;;;;;;;;;;;;47.73;7.99;96290.00;6244666;28;20012;-72
2023/06/30 09:19:58;;;;;;;;;;;;;;;47.67;7.89;96287.44;6244818;28;19917;-69
2023/06/30 09:23:04;;;;;;;;;;;;;;;48.33;7.24;96291.72;6245061;28;19921;-71
2023/06/30 09:26:12;;;;;;;;;;;;;;;47.90;7.52;96289.72;6244425;28;19923;-70
2023/06/30 09:29:14;;;;;;;;;;;;;;;47.99;7.47;96287.59;6244938;28;19932;-70
2023/06/30 09:32:17;;;;;;;;;;;;;;;48.13;7.86;96293.56;6244564;28;19921;-70
2023/06/30 09:35:25;;;;;;;;;;;;;;;47.05;7.98;96288.75;6244818;28;20314;-70
2023/06/30 09:38:29;;;;;;;;;;;;;;;46.43;8.40;96273.19;6244489;28;19921;-69
2023/06/30 09:41:33;;;;;;;;;;;;;;;46.79;8.52;96262.06;6227065;28;19921;-70
2023/06/30 09:44:40;;;;;;;;;;;;;;;45.89;9.17;96283.22;6244879;28;19920;-70
2023/06/30 09:47:43;;;;;;;;;;;;;;;45.40;9.76;96268.28;6244816;28;19920;-70
2023/06/30 09:50:46;;;;;;;;;;;;;;;44.41;10.26;96268.66;6244018;28;20366;-69
2023/06/30 09:53:50;;;;;;;;;;;;;;;43.63;10.71;96256.59;6244581;28;19925;-70
2023/06/30 09:56:57;;;;;;;;;;;;;;;43.39;10.76;96245.19;6244449;28;19925;-69
2023/06/30 09:59:59;;;;;;;;;;;;;;;43.49;10.71;96261.47;6244566;28;20011;-69
2023/06/30 10:03:03;;;;;;;;;;;;;;;42.91;10.96;96251.63;6243415;28;19998;-69
2023/06/30 10:06:09;;;;;;;;;;;;;;;43.03;11.44;96244.34;6244533;28;19921;-69
2023/06/30 10:09:13;;;;;;;;;;;;;;;43.31;11.20;96248.75;6244250;28;19920;-71
2023/06/30 10:12:17;;;;;;;;;;;;;;;42.77;11.80;96238.75;6244271;28;20329;-70
2023/06/30 10:15:21;;;;;;;;;;;;;;;43.22;11.75;96235.72;6246527;28;19921;-69
2023/06/30 10:18:24;;;;;;;;;;;;;;;43.37;10.85;96233.59;6248565;28;19921;-70
2023/06/30 10:21:30;;;;;;;;;;;;;;;42.95;11.35;96219.41;6248249;28;19921;-70
2023/06/30 10:24:37;;;;;;;;;;;;;;;43.18;11.16;96228.41;6248533;28;19921;-72
2023/06/30 10:27:40;;;;;;;;;;;;;;;42.34;11.78;96228.34;6247648;28;20283;-69
2023/06/30 10:30:44;;;;;;;;;;;;;;;42.06;12.17;96210.31;6248363;28;19972;-70
2023/06/30 10:33:45;;;;;;;;;;;;;;;41.87;12.36;96211.34;6247284;28;20303;-70
2023/06/30 10:36:49;;;;;;;;;;;;;;;41.76;12.59;96212.75;6247969;28;19921;-71
2023/06/30 10:39:55;;;;;;;;;;;;;;;41.52;12.93;96195.69;6247204;28;19943;-70
2023/06/30 10:42:58;;;;;;;;;;;;;;;41.28;13.22;96202.31;6247254;28;20422;-69
2023/06/30 10:46:03;;;;;;;;;;;;;;;40.67;13.62;96204.50;6248169;28;20310;-69
2023/06/30 10:49:04;;;;;;;;;;;;;;;40.46;13.73;96197.78;6247244;28;19921;-69
2023/06/30 10:52:10;;;;;;;;;;;;;;;40.22;13.89;96200.75;6230291;28;19995;-69
2023/06/30 10:55:13;;;;;;;;;;;;;;;40.49;13.90;96197.97;6247156;28;19932;-70
2023/06/30 10:58:26;;;;;;;;;;;;;;;40.20;13.86;96194.72;6247969;28;20454;-70
2023/06/30 11:01:29;;;;;;;;;;;;;;;38.72;14.69;96195.97;6246863;28;20365;-69
2023/06/30 11:04:40;;;;;;;;;;;;;;;37.52;15.30;96180.28;6247398;28;19925;-70
2023/06/30 11:07:42;;;;;;;;;;;;;;;37.32;15.67;96168.66;6247144;28;19924;-69
2023/06/30 11:10:45;;;;;;;;;;;;;;;37.86;14.71;96173.09;6247596;28;19920;-70
2023/06/30 11:13:47;;;;;;;;;;;;;;;38.41;14.49;96168.91;6246805;28;19921;-69
2023/06/30 11:17:02;;;;;;;;;;;;;;;38.51;14.83;96161.66;6246729;28;20000;-69
2023/06/30 11:20:12;;;;;;;;;;;;;;;38.70;14.56;96170.72;6246435;28;19928;-69
2023/06/30 11:23:18;;;;;;;;;;;;;;;38.74;15.05;96171.75;6247195;28;19925;-70
2023/06/30 11:26:21;;;;;;;;;;;;;;;38.40;15.26;96150.78;6245841;28;20074;-70
2023/06/30 11:29:25;;;;;;;;;;;;;;;38.13;15.52;96150.53;6247061;28;20375;-70
2023/06/30 11:32:29;;;;;;;;;;;;;;;37.67;15.96;96149.09;6245808;28;20043;-70
2023/06/30 11:35:33;;;;;;;;;;;;;;;37.16;16.37;96138.59;6246087;28;19927;-70
2023/06/30 11:38:40;;;;;;;;;;;;;;;36.99;16.46;96140.88;6245575;28;20427;-69
2023/06/30 11:41:43;;;;;;;;;;;;;;;36.36;16.79;96130.59;6245555;28;20377;-70
2023/06/30 11:44:48;;;;;;;;;;;;;;;36.12;17.18;96120.31;6245791;28;19921;-69
2023/06/30 11:47:54;;;;;;;;;;;;;;;35.76;17.41;96116.84;6245396;28;19928;-70
2023/06/30 11:50:59;;;;;;;;;;;;;;;35.96;17.43;96111.28;6246341;28;19921;-70
2023/06/30 11:54:04;;;;;;;;;;;;;;;35.99;17.43;96118.13;6244171;28;19928;-69
2023/06/30 11:57:10;;;;;;;;;;;;;;;35.83;17.61;96108.31;6245582;28;20475;-70
2023/06/30 12:00:14;;;;;;;;;;;;;;;35.78;17.60;96109.16;6244658;28;19920;-70
2023/06/30 12:03:18;;;;;;;;;;;;;;;35.79;17.71;96105.34;6245914;28;19928;-69
2023/06/30 12:06:24;;;;;;;;;;;;;;;35.35;17.88;96110.59;6245909;28;19920;-69
2023/06/30 12:09:29;;;;;;;;;;;;;;;34.84;18.47;96101.28;6245714;28;20294;-70
2023/06/30 12:12:33;;;;;;;;;;;;;;;35.12;18.13;96090.94;6245757;28;19921;-71
2023/06/30 12:15:36;;;;;;;;;;;;;;;35.08;18.57;96090.69;6245932;28;20386;-70
2023/06/30 12:18:43;;;;;;;;;;;;;;;34.58;19.04;96091.44;6245774;28;19921;-70
2023/06/30 12:21:54;;;;;;;;;;;;;;;34.34;19.30;96075.56;6245650;28;19967;-70
2023/06/30 12:24:57;;;;;;;;;;;;;;;34.41;19.13;96087.03;6244939;28;19921;-70
2023/06/30 12:27:58;;;;;;;;;;;;;;;34.57;19.13;96078.91;6244655;28;19920;-70
2023/06/30 12:31:02;;;;;;;;;;;;;;;34.45;18.95;96075.53;6245710;28;19925;-69
2023/06/30 12:34:03;;;;;;;;;;;;;;;34.13;19.12;96074.66;6244534;28;19924;-70
2023/06/30 12:37:07;;;;;;;;;;;;;;;33.68;19.71;96078.00;6244531;28;19943;-69
2023/06/30 12:40:10;;;;;;;;;;;;;;;33.49;19.82;96070.25;6245251;28;19921;-70
2023/06/30 12:43:14;;;;;;;;;;;;;;;33.54;19.69;96067.56;6245259;28;19921;-70
2023/06/30 12:46:19;;;;;;;;;;;;;;;33.32;19.60;96064.19;6245402;28;19921;-70
2023/06/30 12:49:20;;;;;;;;;;;;;;;33.14;19.91;96056.41;6244481;28;19928;-69
2023/06/30 12:52:21;;;;;;;;;;;;;;;33.33;19.87;96054.91;6244287;28;19932;-69
2023/06/30 12:55:25;;;;;;;;;;;;;;;33.51;19.87;96062.63;6244711;28;19928;-71
2023/06/30 12:58:26;;;;;;;;;;;;;;;33.43;20.02;96059.56;6245311;28;19928;-70
2023/06/30 13:01:30;;;;;;;;;;;;;;;32.90;20.83;96058.69;6244509;28;19960;-69
2023/06/30 13:04:33;;;;;;;;;;;;;;;32.54;21.11;96048.28;6245248;28;19921;-69
2023/06/30 13:07:37;;;;;;;;;;;;;;;32.44;21.41;96042.72;6245172;28;19928;-70
2023/06/30 13:10:38;;;;;;;;;;;;;;;32.15;21.54;96040.25;6244423;28;19927;-69
2023/06/30 13:13:39;;;;;;;;;;;;;;;32.07;21.32;96037.19;6244973;28;19921;-70
2023/06/30 13:16:42;;;;;;;;;;;;;;;31.98;21.86;96036.81;6227365;28;19921;-70
2023/06/30 13:19:43;;;;;;;;;;;;;;;32.06;21.47;96030.94;6244527;28;19963;-70
2023/06/30 13:22:44;;;;;;;;;;;;;;;32.04;21.74;96038.50;6244976;28;19968;-70
2023/06/30 13:25:45;;;;;;;;;;;;;;;32.15;22.18;96029.38;6244354;28;20007;-70
2023/06/30 13:28:49;;;;;;;;;;;;;;;31.90;22.08;96016.28;6244796;28;20062;-71
2023/06/30 13:31:53;;;;;;;;;;;;;;;31.79;22.32;96020.00;6227582;28;19925;-70
2023/06/30 13:34:54;;;;;;;;;;;;;;;31.72;22.20;96009.31;6244327;28;19964;-71
2023/06/30 13:37:58;;;;;;;;;;;;;;;31.62;22.81;96009.19;6244399;28;20379;-70
2023/06/30 13:41:01;;;;;;;;;;;;;;;31.71;22.45;96006.84;6244678;28;19928;-71
2023/06/30 13:44:03;;;;;;;;;;;;;;;31.74;22.53;95996.28;6243774;28;19921;-71
2023/06/30 13:47:07;;;;;;;;;;;;;;;31.81;23.14;95989.81;6244723;28;19928;-70
2023/06/30 13:50:08;;;;;;;;;;;;;;;31.48;22.82;95988.88;6247849;28;19989;-70
2023/06/30 13:53:12;;;;;;;;;;;;;;;31.39;23.17;95982.25;6249104;28;20387;-71
2023/06/30 13:56:15;;;;;;;;;;;;;;;31.17;22.77;95980.34;6249307;28;19921;-70
2023/06/30 13:59:19;;;;;;;;;;;;;;;31.13;23.15;95976.47;6249097;28;19921;-71
2023/06/30 14:02:22;;;;;;;;;;;;;;;31.18;23.57;95965.66;6249201;28;20373;-70
2023/06/30 14:05:27;;;;;;;;;;;;;;;31.05;23.59;95969.56;6248986;28;19921;-70
2023/06/30 14:08:29;;;;;;;;;;;;;;;31.00;23.29;95957.84;6229984;28;19921;-70
2023/06/30 14:11:35;;;;;;;;;;;;;;;31.05;23.51;95958.69;6248784;28;20394;-70
2023/06/30 14:14:38;;;;;;;;;;;;;;;31.05;24.07;95960.59;6248537;28;19920;-70
2023/06/30 14:17:44;;;;;;;;;;;;;;;30.99;24.39;95956.16;6248570;28;20295;-69
2023/06/30 14:20:48;;;;;;;;;;;;;;;30.65;24.39;95956.19;6248082;28;19928;-69
2023/06/30 14:23:51;;;;;;;;;;;;;;;30.50;24.28;95953.25;6248408;28;19921;-70
2023/06/30 14:26:55;;;;;;;;;;;;;;;30.52;24.73;95949.22;6248477;28;19921;-70
2023/06/30 14:29:59;;;;;;;;;;;;;;;30.41;24.66;95940.09;6248344;28;19920;-70
2023/06/30 14:33:03;;;;;;;;;;;;;;;30.35;24.91;95941.09;6248384;28;19925;-70
2023/06/30 14:36:06;;;;;;;;;;;;;;;30.23;24.83;95932.19;6247043;28;20480;-70
2023/06/30 14:39:10;;;;;;;;;;;;;;;30.02;25.23;95932.91;6248192;28;20330;-70
2023/06/30 14:42:11;;;;;;;;;;;;;;;29.99;25.85;95936.94;6247553;28;20401;-71
2023/06/30 14:45:14;;;;;;;;;;;;;;;29.81;25.95;95929.84;6247986;28;19921;-70
2023/06/30 14:48:18;;;;;;;;;;;;;;;29.65;26.30;95919.78;6230789;28;19951;-71
2023/06/30 14:51:22;;;;;;;;;;;;;;;29.50;26.18;95929.25;6245537;28;19920;-70
2023/06/30 14:54:25;;;;;;;;;;;;;;;29.28;26.93;95920.16;6229250;28;19921;-70
2023/06/30 14:57:29;;;;;;;;;;;;;;;29.23;27.52;95915.44;6247672;28;20315;-70
2023/06/30 15:00:32;;;;;;;;;;;;;;;29.02;28.09;95927.72;6245469;28;19920;-70
2023/06/30 15:03:37;;;;;;;;;;;;;;;28.74;28.20;95914.94;6246828;28;19928;-71
2023/06/30 15:06:38;;;;;;;;;;;;;;;28.60;28.23;95919.78;6247491;28;19921;-71
2023/06/30 15:09:41;;;;;;;;;;;;;;;28.48;28.67;95918.97;6246736;28;20390;-70
2023/06/30 15:12:47;;;;;;;;;;;;;;;28.34;29.20;95909.41;6247499;28;20310;-70
2023/06/30 15:15:48;;;;;;;;;;;;;;;28.15;29.52;95912.19;6246499;28;20382;-70
2023/06/30 15:18:49;;;;;;;;;;;;;;;28.00;29.66;95901.03;6246568;28;19921;-71
2023/06/30 15:21:55;;;;;;;;;;;;;;;27.83;29.74;95891.91;6247296;28;19952;-70
2023/06/30 15:24:57;;;;;;;;;;;;;;;27.76;30.48;95898.22;6246246;28;19928;-69
2023/06/30 15:27:58;;;;;;;;;;;;;;;27.54;30.54;95889.84;6246765;28;20015;-71
2023/06/30 15:31:02;;;;;;;;;;;;;;;27.38;30.53;95895.06;6247137;28;20172;-70
2023/06/30 15:34:06;;;;;;;;;;;;;;;27.48;31.36;95895.31;6246092;28;20310;-70
2023/06/30 15:37:08;;;;;;;;;;;;;;;27.43;31.89;95893.31;6245877;28;19920;-70
2023/06/30 15:40:09;;;;;;;;;;;;;;;27.20;31.64;95888.63;6246130;28;19943;-71
2023/06/30 15:43:10;;;;;;;;;;;;;;;27.10;31.55;95899.13;6246565;28;20346;-71
2023/06/30 15:46:14;;;;;;;;;;;;;;;27.05;32.00;95896.28;6246949;28;19921;-71
2023/06/30 15:49:17;;;;;;;;;;;;;;;26.87;32.20;95889.84;6246417;28;19920;-70
2023/06/30 15:52:19;;;;;;;;;;;;;;;26.72;32.29;95892.09;6245826;28;19927;-70
2023/06/30 15:55:23;;;;;;;;;;;;;;;26.58;32.63;95885.19;6246393;28;19921;-70
2023/06/30 15:58:24;;;;;;;;;;;;;;;26.45;33.24;95880.75;6245465;28;19921;-71
2023/06/30 16:01:25;;;;;;;;;;;;;;;26.38;33.80;95880.81;6228110;28;19944;-70